Time;durP1;ratioP1;P1;durP2;ratioP2;P2;SDS_P1;SDS_P2;PMS_P1;PMS_P2;Temp;Humidity;BMP_temperature;BMP_pressure;BME280_temperature;BME280_humidity;BME280_pressure;Samples;Min_cycle;Max_cycle;Signal;HPM_P1;HPM_P2
2023/08/28 00:01:21;;;;;;;2.23;1.50;;;11.80;99.90;;;;;;483161;246;28836;-74
2023/08/28 00:03:22;;;;;;;2.50;1.70;;;11.80;99.90;;;;;;483154;246;28150;-74
2023/08/28 00:05:24;;;;;;;4.53;2.17;;;11.80;99.90;;;;;;483150;246;28303;-74
2023/08/28 00:07:25;;;;;;;1.70;1.60;;;11.80;99.90;;;;;;483162;246;28296;-73
2023/08/28 00:09:26;;;;;;;2.50;1.93;;;11.70;99.90;;;;;;483150;246;28334;-74
2023/08/28 00:11:28;;;;;;;7.90;1.90;;;11.70;99.90;;;;;;483115;246;28220;-73
2023/08/28 00:13:29;;;;;;;6.87;2.03;;;11.60;99.90;;;;;;483094;246;28225;-74
2023/08/28 00:15:30;;;;;;;3.30;1.80;;;11.60;99.90;;;;;;483102;246;28978;-74
2023/08/28 00:17:31;;;;;;;2.30;1.80;;;11.60;99.90;;;;;;483128;246;28170;-74
2023/08/28 00:19:33;;;;;;;2.73;1.73;;;11.60;99.90;;;;;;483107;246;28475;-74
2023/08/28 00:21:34;;;;;;;1.77;1.67;;;11.60;99.90;;;;;;483089;246;28172;-74
2023/08/28 00:23:35;;;;;;;4.27;1.70;;;11.60;99.90;;;;;;483105;246;28175;-73
2023/08/28 00:25:37;;;;;;;3.00;1.70;;;11.60;99.90;;;;;;483112;246;28090;-74
2023/08/28 00:27:38;;;;;;;3.53;1.80;;;11.50;99.90;;;;;;483100;246;28560;-73
2023/08/28 00:29:39;;;;;;;3.20;2.00;;;11.50;99.90;;;;;;483157;246;28092;-73
2023/08/28 00:31:40;;;;;;;3.27;1.60;;;11.50;99.90;;;;;;483131;246;28394;-73
2023/08/28 00:33:44;;;;;;;1.80;1.50;;;11.30;99.90;;;;;;483154;246;29365;-73
2023/08/28 00:35:45;;;;;;;1.83;1.73;;;11.30;99.90;;;;;;483155;246;28076;-74
2023/08/28 00:37:46;;;;;;;4.53;1.50;;;11.30;99.90;;;;;;483148;246;28236;-74
2023/08/28 00:39:48;;;;;;;3.70;1.77;;;11.40;99.90;;;;;;483158;246;28317;-74
2023/08/28 00:41:49;;;;;;;1.80;1.70;;;11.30;99.90;;;;;;483130;246;28439;-75
2023/08/28 00:43:50;;;;;;;1.70;1.60;;;11.30;99.90;;;;;;483162;246;28441;-73
2023/08/28 00:45:52;;;;;;;4.43;1.43;;;11.40;99.90;;;;;;483101;246;28226;-74
2023/08/28 00:47:53;;;;;;;2.10;1.40;;;11.30;99.90;;;;;;483110;246;28055;-73
2023/08/28 00:49:54;;;;;;;3.20;1.57;;;11.30;99.90;;;;;;483091;246;28337;-74
2023/08/28 00:51:55;;;;;;;2.80;1.50;;;11.30;99.90;;;;;;483104;246;27970;-74
2023/08/28 00:53:57;;;;;;;4.00;1.70;;;11.20;99.90;;;;;;483091;246;28296;-74
2023/08/28 00:55:58;;;;;;;2.37;1.90;;;11.20;99.90;;;;;;483105;246;28085;-74
2023/08/28 00:57:59;;;;;;;2.40;1.73;;;11.10;99.90;;;;;;483090;246;28089;-74
2023/08/28 01:00:01;;;;;;;3.00;1.70;;;11.10;99.90;;;;;;483102;246;28155;-73
2023/08/28 01:02:03;;;;;;;1.63;1.43;;;11.20;99.90;;;;;;483125;246;28291;-72
2023/08/28 01:04:03;;;;;;;2.50;1.83;;;11.30;99.90;;;;;;483103;246;28213;-75
2023/08/28 01:06:04;;;;;;;2.73;1.70;;;11.30;99.90;;;;;;483133;246;28235;-75
2023/08/28 01:08:06;;;;;;;1.50;1.40;;;11.30;99.90;;;;;;483131;246;28432;-73
2023/08/28 01:10:09;;;;;;;1.70;1.60;;;11.30;99.90;;;;;;483094;246;28170;-73
2023/08/28 01:12:08;;;;;;;1.90;1.80;;;11.30;99.90;;;;;;483009;246;28759;-73
2023/08/28 01:14:10;;;;;;;2.33;1.83;;;11.30;99.90;;;;;;483108;246;28209;-73
2023/08/28 01:16:11;;;;;;;1.70;1.60;;;11.30;99.90;;;;;;483087;246;28278;-73
2023/08/28 01:18:12;;;;;;;2.87;1.50;;;11.30;99.90;;;;;;483111;246;28433;-74
2023/08/28 01:20:13;;;;;;;1.70;1.60;;;11.20;99.90;;;;;;483093;246;28352;-74
2023/08/28 01:22:15;;;;;;;1.60;1.50;;;11.20;99.90;;;;;;483084;246;28186;-74
2023/08/28 01:24:16;;;;;;;3.53;1.47;;;11.20;99.90;;;;;;483091;246;28832;-74
2023/08/28 01:26:17;;;;;;;2.63;1.90;;;11.20;99.90;;;;;;483094;246;28073;-74
2023/08/28 01:28:20;;;;;;;1.97;1.77;;;11.20;99.90;;;;;;483105;246;28387;-74
2023/08/28 01:30:21;;;;;;;4.13;1.80;;;11.20;99.90;;;;;;483094;246;28261;-74
2023/08/28 01:32:22;;;;;;;1.77;1.67;;;11.10;99.90;;;;;;483085;246;28337;-76
2023/08/28 01:34:23;;;;;;;2.33;1.33;;;11.20;99.90;;;;;;483092;246;28503;-73
2023/08/28 01:36:25;;;;;;;1.47;1.37;;;11.20;99.90;;;;;;483091;246;28777;-73
2023/08/28 01:38:26;;;;;;;2.47;1.63;;;11.20;99.90;;;;;;483095;246;28651;-73
2023/08/28 01:40:27;;;;;;;2.03;1.83;;;11.20;99.90;;;;;;483091;246;28243;-73
2023/08/28 01:42:29;;;;;;;1.90;1.73;;;11.20;99.90;;;;;;483143;246;28315;-74
2023/08/28 01:44:30;;;;;;;3.60;1.70;;;11.20;99.90;;;;;;483147;246;28302;-74
2023/08/28 01:46:33;;;;;;;1.80;1.70;;;11.20;99.90;;;;;;483102;246;28100;-74
2023/08/28 01:48:32;;;;;;;4.37;1.60;;;11.20;99.90;;;;;;482978;246;28345;-74
2023/08/28 01:50:34;;;;;;;1.57;1.47;;;11.20;99.90;;;;;;483093;246;28197;-72
2023/08/28 01:52:36;;;;;;;2.13;1.93;;;;;;;;;;483080;246;28210;-73
2023/08/28 01:54:37;;;;;;;2.10;1.60;;;11.10;99.90;;;;;;483089;246;27160;-73
2023/08/28 01:56:39;;;;;;;1.50;1.40;;;11.10;99.90;;;;;;483093;246;27974;-73
2023/08/28 01:58:40;;;;;;;2.70;1.80;;;11.00;99.90;;;;;;483094;246;28130;-73
2023/08/28 02:00:42;;;;;;;2.80;1.47;;;;;;;;;;483087;246;28218;-74
2023/08/28 02:02:44;;;;;;;2.30;1.87;;;11.00;99.90;;;;;;483079;246;27219;-73
2023/08/28 02:04:46;;;;;;;2.03;1.83;;;11.00;99.90;;;;;;483081;246;28180;-73
2023/08/28 02:06:46;;;;;;;4.00;1.83;;;11.00;99.90;;;;;;483055;246;28286;-74
2023/08/28 02:08:47;;;;;;;1.70;1.50;;;11.00;99.90;;;;;;483101;246;28446;-74
2023/08/28 02:10:50;;;;;;;2.50;1.60;;;;;;;;;;483095;246;28522;-74
2023/08/28 02:12:51;;;;;;;1.73;1.63;;;11.10;99.90;;;;;;483098;246;27699;-74
2023/08/28 02:14:52;;;;;;;3.73;2.20;;;11.10;99.90;;;;;;482978;246;28623;-73
2023/08/28 02:16:54;;;;;;;1.50;1.40;;;11.10;99.90;;;;;;483091;246;28673;-73
2023/08/28 02:18:55;;;;;;;1.80;1.70;;;11.10;99.90;;;;;;483091;246;28081;-74
2023/08/28 02:20:56;;;;;;;2.63;2.00;;;11.20;99.90;;;;;;483122;246;28356;-73
2023/08/28 02:22:57;;;;;;;2.87;1.63;;;11.10;99.90;;;;;;483138;246;28308;-73
2023/08/28 02:25:00;;;;;;;1.73;1.63;;;;;;;;;;483148;246;28050;-74
2023/08/28 02:27:02;;;;;;;5.63;1.90;;;;;;;;;;483146;246;27646;-72
2023/08/28 02:29:04;;;;;;;3.60;1.63;;;10.90;99.90;;;;;;483144;246;27211;-74
2023/08/28 02:31:05;;;;;;;2.23;1.60;;;10.90;99.90;;;;;;483163;246;28211;-74
2023/08/28 02:33:06;;;;;;;2.17;1.80;;;10.90;99.90;;;;;;483136;246;28387;-74
2023/08/28 02:35:07;;;;;;;2.90;2.00;;;10.80;99.90;;;;;;483158;246;28641;-75
2023/08/28 02:37:10;;;;;;;1.80;1.70;;;10.80;99.90;;;;;;483131;246;28536;-74
2023/08/28 02:39:11;;;;;;;1.70;1.60;;;10.90;99.90;;;;;;483152;246;28302;-75
2023/08/28 02:41:12;;;;;;;1.80;1.70;;;10.90;99.90;;;;;;483144;246;28111;-73
2023/08/28 02:43:13;;;;;;;1.83;1.40;;;10.90;99.90;;;;;;483127;246;28856;-74
2023/08/28 02:45:15;;;;;;;6.53;1.73;;;10.90;99.90;;;;;;483086;246;28551;-73
2023/08/28 02:47:16;;;;;;;2.70;2.00;;;10.90;99.90;;;;;;483084;246;28455;-74
2023/08/28 02:49:17;;;;;;;4.43;2.00;;;10.90;99.90;;;;;;483134;246;28275;-74
2023/08/28 02:51:18;;;;;;;1.60;1.50;;;10.80;99.90;;;;;;483152;246;28103;-74
2023/08/28 02:53:20;;;;;;;1.87;1.73;;;10.90;99.90;;;;;;483136;246;28196;-74
2023/08/28 02:55:22;;;;;;;2.40;1.80;;;10.90;99.90;;;;;;483133;246;28102;-74
2023/08/28 02:57:23;;;;;;;1.90;1.47;;;10.80;99.90;;;;;;483094;246;28306;-74
2023/08/28 02:59:24;;;;;;;1.70;1.60;;;10.70;99.90;;;;;;483129;246;28049;-74
2023/08/28 03:01:26;;;;;;;1.70;1.60;;;10.70;99.90;;;;;;483136;246;28190;-74
2023/08/28 03:03:27;;;;;;;2.47;2.00;;;10.70;99.90;;;;;;483087;246;28194;-74
2023/08/28 03:05:28;;;;;;;2.40;1.67;;;10.70;99.90;;;;;;483075;246;28348;-73
2023/08/28 03:07:31;;;;;;;1.70;1.60;;;;;;;;;;483090;246;28679;-76
2023/08/28 03:09:32;;;;;;;3.33;1.60;;;10.60;99.90;;;;;;483090;246;27303;-73
2023/08/28 03:11:33;;;;;;;2.90;1.80;;;10.70;99.90;;;;;;483102;246;28217;-73
2023/08/28 03:13:34;;;;;;;2.10;1.90;;;10.70;99.90;;;;;;483076;246;28213;-73
2023/08/28 03:15:35;;;;;;;1.80;1.60;;;10.70;99.90;;;;;;483148;246;28545;-74
2023/08/28 03:17:37;;;;;;;1.50;1.40;;;10.70;99.90;;;;;;483141;246;28545;-74
2023/08/28 03:19:38;;;;;;;1.63;1.53;;;10.70;99.90;;;;;;483177;246;28439;-75
2023/08/28 03:21:43;;;;;;;1.57;1.47;;;10.70;99.90;;;;;;483170;246;28113;-73
2023/08/28 03:23:40;;;;;;;4.07;1.70;;;10.70;99.90;;;;;;482980;246;28253;-73
2023/08/28 03:25:42;;;;;;;2.93;2.07;;;10.70;99.90;;;;;;483155;246;28174;-75
2023/08/28 03:27:43;;;;;;;1.77;1.40;;;10.70;99.90;;;;;;483090;246;28300;-73
2023/08/28 03:29:44;;;;;;;1.93;1.60;;;10.70;99.90;;;;;;483192;246;28228;-73
2023/08/28 03:31:47;;;;;;;2.00;1.70;;;10.70;99.90;;;;;;483161;246;28074;-74
2023/08/28 03:33:48;;;;;;;1.90;1.80;;;10.70;99.90;;;;;;483154;246;28126;-74
2023/08/28 03:35:49;;;;;;;2.63;1.87;;;10.70;99.90;;;;;;483085;246;28264;-77
2023/08/28 03:37:50;;;;;;;2.00;1.63;;;10.70;99.90;;;;;;483175;246;28648;-74
2023/08/28 03:39:52;;;;;;;3.53;1.73;;;10.70;99.90;;;;;;483117;246;28814;-75
2023/08/28 03:41:53;;;;;;;1.87;1.77;;;10.60;99.90;;;;;;483174;246;28622;-73
2023/08/28 03:43:54;;;;;;;3.03;1.63;;;10.70;99.90;;;;;;483145;246;28311;-74
2023/08/28 03:45:55;;;;;;;1.67;1.57;;;10.70;99.90;;;;;;483187;246;28182;-74
2023/08/28 03:47:57;;;;;;;3.23;1.80;;;10.70;99.90;;;;;;483152;246;28202;-73
2023/08/28 03:49:58;;;;;;;1.97;1.80;;;10.70;99.90;;;;;;483169;246;28120;-74
2023/08/28 03:51:59;;;;;;;3.93;1.90;;;10.70;99.90;;;;;;483147;246;28222;-73
2023/08/28 03:54:00;;;;;;;1.80;1.70;;;10.70;99.90;;;;;;483142;246;28435;-75
2023/08/28 03:56:02;;;;;;;2.03;1.93;;;10.80;99.90;;;;;;483162;246;28769;-75
2023/08/28 03:58:03;;;;;;;3.27;1.77;;;10.80;99.90;;;;;;483156;246;28575;-74
2023/08/28 04:00:12;;;;;;;2.23;1.53;;;10.70;99.90;;;;;;483138;246;28219;-75
2023/08/28 04:02:08;;;;;;;1.90;1.60;;;10.70;99.90;;;;;;482798;246;28127;-73
2023/08/28 04:04:10;;;;;;;2.50;1.90;;;10.60;99.90;;;;;;483100;246;28210;-73
2023/08/28 04:06:11;;;;;;;3.53;1.53;;;10.50;99.90;;;;;;483153;246;28307;-73
2023/08/28 04:08:13;;;;;;;3.30;1.73;;;10.50;99.90;;;;;;483108;246;28767;-73
2023/08/28 04:10:14;;;;;;;1.57;1.47;;;10.50;99.90;;;;;;483165;246;28077;-73
2023/08/28 04:12:16;;;;;;;1.70;1.60;;;10.50;99.90;;;;;;483092;246;28105;-74
2023/08/28 04:14:17;;;;;;;1.70;1.60;;;10.50;99.90;;;;;;483104;246;28656;-73
2023/08/28 04:16:21;;;;;;;2.50;1.63;;;10.50;99.90;;;;;;483113;246;28752;-73
2023/08/28 04:18:22;;;;;;;2.00;1.90;;;10.50;99.90;;;;;;483105;246;28226;-73
2023/08/28 04:20:25;;;;;;;1.83;1.67;;;;;;;;;;483088;246;28202;-74
2023/08/28 04:22:26;;;;;;;5.73;1.93;;;10.30;99.90;;;;;;483098;246;27318;-73
2023/08/28 04:24:27;;;;;;;2.00;1.80;;;10.40;99.90;;;;;;483094;246;28137;-74
2023/08/28 04:26:30;;;;;;;3.30;1.90;;;10.40;99.90;;;;;;483107;246;28129;-79
2023/08/28 04:28:30;;;;;;;2.37;1.40;;;10.40;99.90;;;;;;483035;246;28133;-74
2023/08/28 04:30:31;;;;;;;1.67;1.57;;;10.40;99.90;;;;;;483098;246;28455;-76
2023/08/28 04:32:32;;;;;;;2.80;1.50;;;10.40;99.90;;;;;;483106;246;28685;-73
2023/08/28 04:34:33;;;;;;;3.13;1.57;;;10.40;99.90;;;;;;483104;246;28552;-74
2023/08/28 04:36:35;;;;;;;3.77;1.70;;;10.30;99.90;;;;;;483101;246;28253;-74
2023/08/28 04:38:36;;;;;;;1.87;1.77;;;10.30;99.90;;;;;;483100;246;27972;-73
2023/08/28 04:40:37;;;;;;;10.10;2.17;;;10.40;99.90;;;;;;483114;246;28196;-73
2023/08/28 04:42:38;;;;;;;2.80;1.70;;;10.30;99.90;;;;;;483094;246;28248;-73
2023/08/28 04:44:40;;;;;;;1.80;1.60;;;10.40;99.90;;;;;;483084;246;28264;-74
2023/08/28 04:46:41;;;;;;;1.70;1.60;;;10.50;99.90;;;;;;483099;246;28194;-77
2023/08/28 04:48:42;;;;;;;1.80;1.70;;;10.40;99.90;;;;;;483103;246;28118;-73
2023/08/28 04:50:43;;;;;;;1.70;1.60;;;10.40;99.90;;;;;;483163;246;28533;-73
2023/08/28 04:52:45;;;;;;;3.40;2.07;;;10.40;99.90;;;;;;483154;246;28537;-73
2023/08/28 04:54:46;;;;;;;1.87;1.70;;;10.40;99.90;;;;;;483150;246;28519;-73
2023/08/28 04:56:48;;;;;;;1.63;1.53;;;10.50;99.90;;;;;;483097;246;28115;-73
2023/08/28 04:58:48;;;;;;;2.13;1.93;;;10.40;99.90;;;;;;483057;246;28839;-74
2023/08/28 05:00:50;;;;;;;3.70;1.90;;;10.40;99.90;;;;;;483103;246;28222;-76
2023/08/28 05:02:51;;;;;;;1.90;1.77;;;10.40;99.90;;;;;;483095;246;28058;-75
2023/08/28 05:04:52;;;;;;;1.67;1.57;;;10.30;99.90;;;;;;483090;246;28538;-74
2023/08/28 05:06:54;;;;;;;4.17;1.87;;;10.30;99.90;;;;;;483107;246;28505;-73
2023/08/28 05:08:55;;;;;;;1.70;1.60;;;10.40;99.90;;;;;;483095;246;28585;-73
2023/08/28 05:10:56;;;;;;;1.60;1.50;;;10.30;99.90;;;;;;483165;246;28430;-75
2023/08/28 05:12:57;;;;;;;1.60;1.50;;;10.30;99.90;;;;;;483149;246;28052;-73
2023/08/28 05:14:59;;;;;;;3.43;1.70;;;10.40;99.90;;;;;;483158;246;27942;-75
2023/08/28 05:17:00;;;;;;;4.73;1.53;;;10.40;99.90;;;;;;483097;246;28191;-76
2023/08/28 05:19:01;;;;;;;1.50;1.43;;;10.40;99.90;;;;;;483101;246;28525;-73
2023/08/28 05:21:02;;;;;;;1.60;1.50;;;10.50;99.90;;;;;;483035;246;28685;-75
2023/08/28 05:23:04;;;;;;;3.30;1.90;;;10.60;99.90;;;;;;483101;246;28186;-74
2023/08/28 05:25:05;;;;;;;1.57;1.47;;;10.60;99.90;;;;;;483073;246;28225;-75
2023/08/28 05:27:08;;;;;;;1.90;1.50;;;10.70;99.90;;;;;;483092;246;28608;-76
2023/08/28 05:29:08;;;;;;;1.80;1.70;;;10.80;99.90;;;;;;483075;246;28661;-74
2023/08/28 05:31:09;;;;;;;1.60;1.50;;;10.80;99.90;;;;;;483137;246;28363;-74
2023/08/28 05:33:10;;;;;;;1.67;1.57;;;10.90;99.90;;;;;;483085;246;28421;-73
2023/08/28 05:35:11;;;;;;;1.50;1.40;;;11.00;99.90;;;;;;483084;246;28663;-74
2023/08/28 05:37:12;;;;;;;2.77;1.80;;;11.00;99.90;;;;;;483092;246;28968;-75
2023/08/28 05:39:14;;;;;;;2.37;1.70;;;10.90;99.90;;;;;;483086;246;28692;-74
2023/08/28 05:41:15;;;;;;;2.27;1.60;;;10.90;99.90;;;;;;483091;246;28116;-73
2023/08/28 05:43:16;;;;;;;2.03;1.87;;;10.90;99.90;;;;;;483082;246;28221;-73
2023/08/28 05:45:18;;;;;;;2.00;1.53;;;10.90;99.90;;;;;;483100;246;28678;-73
2023/08/28 05:47:19;;;;;;;1.67;1.57;;;10.90;99.90;;;;;;483150;246;28640;-74
2023/08/28 05:49:20;;;;;;;1.83;1.33;;;11.00;99.90;;;;;;483152;246;28304;-73
2023/08/28 05:51:21;;;;;;;1.90;1.80;;;11.00;99.90;;;;;;483098;246;28394;-73
2023/08/28 05:53:23;;;;;;;2.30;1.67;;;11.10;99.90;;;;;;483100;246;28684;-73
2023/08/28 05:55:24;;;;;;;2.70;1.50;;;11.10;99.90;;;;;;483099;246;28662;-73
2023/08/28 05:57:25;;;;;;;3.67;1.70;;;11.20;99.90;;;;;;483149;246;28157;-74
2023/08/28 05:59:26;;;;;;;3.93;1.90;;;11.20;99.90;;;;;;483128;246;28563;-73
2023/08/28 06:01:28;;;;;;;1.87;1.70;;;11.10;99.90;;;;;;483089;246;28516;-74
2023/08/28 06:03:30;;;;;;;3.13;1.70;;;;;;;;;;483130;246;28791;-73
2023/08/28 06:05:31;;;;;;;3.83;1.80;;;11.30;99.90;;;;;;483127;246;27661;-73
2023/08/28 06:07:33;;;;;;;2.00;1.87;;;11.40;99.90;;;;;;483138;246;28698;-73
2023/08/28 06:09:34;;;;;;;1.63;1.53;;;11.60;99.90;;;;;;483143;246;28234;-74
2023/08/28 06:11:37;;;;;;;3.50;1.70;;;;;;;;;;483113;246;28546;-73
2023/08/28 06:13:38;;;;;;;1.73;1.63;;;11.70;99.90;;;;;;483148;246;27515;-73
2023/08/28 06:15:39;;;;;;;4.67;1.77;;;11.70;99.90;;;;;;483144;246;28644;-73
2023/08/28 06:17:40;;;;;;;3.17;1.90;;;11.80;99.90;;;;;;483123;246;28105;-73
2023/08/28 06:19:42;;;;;;;2.90;1.90;;;11.90;99.90;;;;;;483116;246;28092;-74
2023/08/28 06:21:45;;;;;;;2.50;1.77;;;11.90;99.90;;;;;;483118;246;28091;-73
2023/08/28 06:23:44;;;;;;;4.73;1.90;;;12.00;99.90;;;;;;483022;246;28441;-75
2023/08/28 06:25:45;;;;;;;2.23;1.70;;;12.10;99.90;;;;;;483083;246;28089;-78
2023/08/28 06:27:47;;;;;;;3.07;1.93;;;12.00;99.90;;;;;;483078;246;28442;-73
2023/08/28 06:29:48;;;;;;;2.30;1.93;;;12.10;99.90;;;;;;483056;246;29161;-72
2023/08/28 06:31:49;;;;;;;2.93;1.90;;;12.20;99.90;;;;;;483096;246;28450;-73
2023/08/28 06:33:51;;;;;;;1.87;1.77;;;12.20;99.90;;;;;;483129;246;28624;-73
2023/08/28 06:35:52;;;;;;;2.30;1.73;;;12.20;99.90;;;;;;483132;246;28572;-73
2023/08/28 06:37:53;;;;;;;1.83;1.67;;;12.30;99.90;;;;;;483117;246;28657;-74
2023/08/28 06:39:54;;;;;;;2.57;1.73;;;12.30;99.90;;;;;;483128;246;28834;-74
2023/08/28 06:41:56;;;;;;;2.33;2.00;;;12.30;99.90;;;;;;483106;246;28169;-74
2023/08/28 06:43:57;;;;;;;2.20;2.00;;;12.40;99.90;;;;;;483096;246;28669;-74
2023/08/28 06:45:58;;;;;;;4.00;2.27;;;12.40;99.90;;;;;;483106;246;28371;-72
2023/08/28 06:48:00;;;;;;;3.40;1.80;;;12.40;99.90;;;;;;483124;246;29385;-75
2023/08/28 06:50:01;;;;;;;3.80;1.80;;;12.40;99.90;;;;;;483117;246;28227;-73
2023/08/28 06:52:02;;;;;;;4.17;1.80;;;12.40;99.90;;;;;;483114;246;28964;-73
2023/08/28 06:54:03;;;;;;;1.90;1.80;;;12.30;99.90;;;;;;483103;246;28805;-74
2023/08/28 06:56:05;;;;;;;2.77;1.47;;;12.30;99.90;;;;;;483083;246;28702;-73
2023/08/28 06:58:06;;;;;;;2.10;1.60;;;12.30;99.90;;;;;;483125;246;28698;-74
2023/08/28 07:00:08;;;;;;;1.40;1.30;;;12.30;99.90;;;;;;483131;246;28660;-74
2023/08/28 07:02:08;;;;;;;1.77;1.57;;;12.40;99.90;;;;;;483038;246;28098;-73
2023/08/28 07:04:10;;;;;;;1.70;1.60;;;12.30;99.90;;;;;;483086;246;28332;-72
2023/08/28 07:06:13;;;;;;;1.60;1.50;;;12.30;99.90;;;;;;483088;246;28354;-76
2023/08/28 07:08:13;;;;;;;1.63;1.53;;;12.30;99.90;;;;;;483028;246;28535;-72
2023/08/28 07:10:14;;;;;;;1.77;1.67;;;12.30;99.90;;;;;;483081;246;28657;-73
2023/08/28 07:12:16;;;;;;;1.93;1.83;;;12.40;99.90;;;;;;483090;246;28792;-73
2023/08/28 07:14:17;;;;;;;2.70;2.07;;;12.30;99.90;;;;;;483090;246;28226;-73
2023/08/28 07:16:18;;;;;;;2.10;2.00;;;12.30;99.90;;;;;;483097;246;28332;-74
2023/08/28 07:18:21;;;;;;;2.20;2.00;;;;;;;;;;483096;246;28361;-73
2023/08/28 07:20:23;;;;;;;3.50;2.20;;;;;;;;;;483086;246;27671;-78
2023/08/28 07:22:25;;;;;;;2.10;2.00;;;12.50;99.90;;;;;;483069;246;27544;-73
2023/08/28 07:24:26;;;;;;;3.40;1.77;;;12.50;99.90;;;;;;483077;246;28667;-72
2023/08/28 07:26:27;;;;;;;2.60;1.53;;;12.60;99.90;;;;;;483113;246;28443;-73
2023/08/28 07:28:29;;;;;;;3.13;1.87;;;;;;;;;;483115;246;28327;-82
2023/08/28 07:30:31;;;;;;;2.20;1.97;;;12.80;99.90;;;;;;483090;246;26624;-74
2023/08/28 07:32:32;;;;;;;2.60;1.67;;;13.00;99.90;;;;;;483104;246;28207;-76
2023/08/28 07:34:33;;;;;;;2.20;1.40;;;13.10;99.90;;;;;;483116;246;28442;-73
2023/08/28 07:36:37;;;;;;;1.87;1.77;;;13.20;99.90;;;;;;483104;246;28695;-74
2023/08/28 07:38:36;;;;;;;3.33;1.73;;;13.30;99.90;;;;;;482945;246;28799;-72
2023/08/28 07:40:37;;;;;;;1.77;1.67;;;13.40;99.90;;;;;;483095;246;28206;-75
2023/08/28 07:42:38;;;;;;;1.90;1.80;;;13.40;99.90;;;;;;483088;246;28196;-75
2023/08/28 07:44:39;;;;;;;1.70;1.60;;;13.40;99.90;;;;;;483075;246;28239;-75
2023/08/28 07:46:41;;;;;;;1.93;1.83;;;13.40;99.90;;;;;;483075;246;28211;-73
2023/08/28 07:48:42;;;;;;;2.20;1.57;;;13.50;99.90;;;;;;483090;246;28253;-73
2023/08/28 07:50:45;;;;;;;2.10;1.90;;;13.60;99.90;;;;;;483096;246;28408;-75
2023/08/28 07:52:45;;;;;;;1.80;1.70;;;13.80;99.90;;;;;;483024;246;28523;-76
2023/08/28 07:54:46;;;;;;;2.67;2.07;;;14.00;99.90;;;;;;483072;246;28543;-76
2023/08/28 07:56:47;;;;;;;1.90;1.80;;;14.00;99.90;;;;;;483082;246;28452;-75
2023/08/28 07:58:49;;;;;;;3.47;1.77;;;14.10;99.90;;;;;;483065;246;28460;-75
2023/08/28 08:00:50;;;;;;;1.97;1.87;;;14.10;99.90;;;;;;483073;246;29310;-76
2023/08/28 08:02:55;;;;;;;2.50;1.60;;;14.20;99.90;;;;;;483121;246;28850;-73
2023/08/28 08:04:55;;;;;;;1.97;1.77;;;14.30;99.90;;;;;;483100;246;28852;-74
2023/08/28 08:06:56;;;;;;;2.50;1.80;;;14.50;99.90;;;;;;483129;246;28940;-73
2023/08/28 08:08:58;;;;;;;1.97;1.70;;;14.70;99.90;;;;;;483103;246;28879;-74
2023/08/28 08:10:59;;;;;;;2.50;1.90;;;14.80;99.90;;;;;;483110;246;29313;-74
2023/08/28 08:13:00;;;;;;;1.90;1.40;;;15.00;99.90;;;;;;483104;246;29297;-74
2023/08/28 08:15:02;;;;;;;1.50;1.40;;;15.10;99.90;;;;;;483101;246;29311;-74
2023/08/28 08:17:03;;;;;;;1.80;1.70;;;15.20;99.90;;;;;;483089;246;29397;-78
2023/08/28 08:19:04;;;;;;;3.40;1.80;;;15.20;99.90;;;;;;483098;246;29328;-75
2023/08/28 08:21:05;;;;;;;1.73;1.63;;;15.30;99.90;;;;;;483106;246;28842;-75
2023/08/28 08:23:07;;;;;;;2.93;1.70;;;15.20;99.90;;;;;;483095;246;28837;-74
2023/08/28 08:25:09;;;;;;;2.47;1.70;;;15.20;99.90;;;;;;483103;246;29286;-73
2023/08/28 08:27:09;;;;;;;2.33;1.67;;;15.10;99.90;;;;;;483066;246;29392;-75
2023/08/28 08:29:10;;;;;;;3.50;1.90;;;15.20;99.90;;;;;;483115;246;28869;-73
2023/08/28 08:31:12;;;;;;;1.83;1.73;;;15.30;99.90;;;;;;483115;246;28865;-73
2023/08/28 08:33:13;;;;;;;1.80;1.70;;;15.20;99.90;;;;;;483106;246;29285;-73
2023/08/28 08:35:14;;;;;;;2.67;1.57;;;15.30;99.90;;;;;;483103;246;29288;-73
2023/08/28 08:37:15;;;;;;;1.60;1.50;;;15.30;99.90;;;;;;483114;246;28950;-74
2023/08/28 08:39:17;;;;;;;2.60;2.17;;;15.30;99.90;;;;;;483117;246;28848;-73
2023/08/28 08:41:18;;;;;;;3.00;1.60;;;14.90;99.90;;;;;;483116;246;28852;-73
2023/08/28 08:43:19;;;;;;;3.53;1.77;;;14.80;99.90;;;;;;483092;246;28847;-72
2023/08/28 08:45:22;;;;;;;1.90;1.80;;;14.90;99.90;;;;;;483096;246;29432;-72
2023/08/28 08:47:23;;;;;;;3.40;1.33;;;14.70;99.90;;;;;;483105;246;28861;-75
2023/08/28 08:49:26;;;;;;;1.77;1.50;;;14.90;99.90;;;;;;483104;246;28844;-75
2023/08/28 08:51:26;;;;;;;3.27;1.87;;;15.10;99.90;;;;;;483080;246;28861;-73
2023/08/28 08:53:28;;;;;;;4.43;2.00;;;15.10;99.90;;;;;;483121;246;28868;-76
2023/08/28 08:55:29;;;;;;;3.90;1.53;;;15.30;99.90;;;;;;483122;246;28841;-73
2023/08/28 08:57:30;;;;;;;3.47;1.60;;;15.30;99.90;;;;;;483103;246;28853;-73
2023/08/28 08:59:32;;;;;;;1.70;1.60;;;15.30;99.90;;;;;;483099;246;28941;-75
2023/08/28 09:01:33;;;;;;;3.40;2.00;;;15.40;99.90;;;;;;483113;246;28921;-76
2023/08/28 09:03:34;;;;;;;2.33;1.70;;;15.50;99.90;;;;;;483112;246;28883;-76
2023/08/28 09:05:35;;;;;;;3.57;1.90;;;15.60;99.90;;;;;;483075;246;28851;-76
2023/08/28 09:07:37;;;;;;;1.63;1.53;;;15.40;99.90;;;;;;483100;246;29314;-75
2023/08/28 09:09:38;;;;;;;2.53;1.60;;;15.40;99.90;;;;;;483098;246;29398;-75
2023/08/28 09:11:40;;;;;;;1.40;1.30;;;15.50;99.90;;;;;;483098;246;29417;-75
2023/08/28 09:13:41;;;;;;;2.73;1.70;;;15.20;99.90;;;;;;483103;246;28859;-72
2023/08/28 09:15:42;;;;;;;2.00;1.80;;;15.20;99.90;;;;;;483097;246;28828;-75
2023/08/28 09:17:43;;;;;;;4.47;1.90;;;15.50;99.90;;;;;;483100;246;29026;-72
2023/08/28 09:19:44;;;;;;;2.03;1.83;;;15.50;99.90;;;;;;483104;246;28851;-73
2023/08/28 09:21:49;;;;;;;1.73;1.63;;;15.60;99.90;;;;;;483098;246;28851;-73
2023/08/28 09:23:50;;;;;;;1.77;1.60;;;15.60;99.90;;;;;;483103;246;28848;-73
2023/08/28 09:25:51;;;;;;;3.73;1.80;;;15.90;99.90;;;;;;483108;246;28849;-72
2023/08/28 09:27:52;;;;;;;1.97;1.83;;;15.70;99.90;;;;;;483102;246;29387;-78
2023/08/28 09:29:54;;;;;;;2.03;1.23;;;15.80;99.90;;;;;;483102;246;29403;-76
2023/08/28 09:31:55;;;;;;;2.03;1.70;;;15.80;99.90;;;;;;483113;246;29399;-73
2023/08/28 09:33:56;;;;;;;1.90;1.60;;;15.40;99.90;;;;;;483106;246;28841;-74
2023/08/28 09:35:57;;;;;;;2.83;1.60;;;15.60;99.90;;;;;;483105;246;28847;-72
2023/08/28 09:37:59;;;;;;;3.70;1.60;;;15.50;99.90;;;;;;483090;246;28912;-75
2023/08/28 09:40:00;;;;;;;2.60;1.70;;;15.50;99.90;;;;;;483116;246;28851;-75
2023/08/28 09:42:01;;;;;;;5.17;1.77;;;15.30;99.90;;;;;;483103;246;28854;-73
2023/08/28 09:44:02;;;;;;;2.40;1.83;;;15.30;99.90;;;;;;483109;246;28918;-75
2023/08/28 09:46:04;;;;;;;3.07;1.60;;;15.40;99.90;;;;;;483076;246;28874;-75
2023/08/28 09:48:05;;;;;;;2.07;1.53;;;15.40;99.90;;;;;;483112;246;29387;-73
2023/08/28 09:50:07;;;;;;;2.93;1.60;;;15.80;99.90;;;;;;483089;246;29280;-73
2023/08/28 09:52:07;;;;;;;3.40;1.97;;;15.80;99.90;;;;;;483091;246;29324;-74
2023/08/28 09:54:09;;;;;;;2.00;1.77;;;15.90;99.90;;;;;;483091;246;28846;-75
2023/08/28 09:56:10;;;;;;;1.93;1.70;;;15.60;99.90;;;;;;483096;246;28848;-75
2023/08/28 09:58:11;;;;;;;1.90;1.70;;;15.50;99.90;;;;;;483106;246;28957;-75
2023/08/28 10:00:13;;;;;;;2.33;1.90;;;15.20;99.90;;;;;;483097;246;28920;-76
2023/08/28 10:02:14;;;;;;;1.67;1.57;;;15.40;99.90;;;;;;483099;246;28924;-75
2023/08/28 10:04:15;;;;;;;3.40;1.93;;;15.70;99.90;;;;;;483096;246;28858;-75
2023/08/28 10:06:16;;;;;;;3.60;1.70;;;15.80;99.90;;;;;;483066;246;28843;-76
2023/08/28 10:08:17;;;;;;;4.40;1.40;;;16.00;99.90;;;;;;483098;246;29295;-75
2023/08/28 10:10:20;;;;;;;2.87;1.60;;;16.10;99.90;;;;;;483096;246;29401;-75
2023/08/28 10:12:21;;;;;;;1.73;1.50;;;16.20;99.90;;;;;;483088;246;28876;-75
2023/08/28 10:14:22;;;;;;;2.90;1.60;;;16.60;99.90;;;;;;483072;246;28847;-74
2023/08/28 10:16:23;;;;;;;2.30;1.77;;;16.50;99.90;;;;;;483083;246;29319;-76
2023/08/28 10:18:25;;;;;;;2.47;2.00;;;16.00;99.90;;;;;;483076;246;29304;-75
2023/08/28 10:20:28;;;;;;;3.73;1.87;;;16.10;99.90;;;;;;483061;246;29292;-75
2023/08/28 10:22:28;;;;;;;2.60;1.70;;;16.10;99.90;;;;;;483021;246;28856;-74
2023/08/28 10:24:30;;;;;;;1.93;1.60;;;16.10;99.90;;;;;;483075;246;28856;-74
2023/08/28 10:26:31;;;;;;;3.47;1.60;;;16.30;99.90;;;;;;483043;246;28923;-74
2023/08/28 10:28:32;;;;;;;2.47;1.83;;;16.60;99.90;;;;;;483082;246;29317;-75
2023/08/28 10:30:33;;;;;;;3.73;1.80;;;16.80;99.90;;;;;;483087;246;29305;-76
2023/08/28 10:32:34;;;;;;;3.13;1.73;;;17.10;99.90;;;;;;483080;246;29286;-73
2023/08/28 10:34:36;;;;;;;2.47;1.93;;;17.30;99.90;;;;;;483094;246;28920;-74